sensor_id;sensor_type;location;lat;lon;timestamp;P1;durP1;ratioP1;P2;durP2;ratioP2
9942;SDS011;5010;45.080;7.634;2023-04-30T00:02:06;9.82;;;7.20;;
9942;SDS011;5010;45.080;7.634;2023-04-30T00:04:34;7.32;;;6.55;;
9942;SDS011;5010;45.080;7.634;2023-04-30T00:07:02;8.07;;;6.90;;
9942;SDS011;5010;45.080;7.634;2023-04-30T00:09:29;6.90;;;5.25;;
9942;SDS011;5010;45.080;7.634;2023-04-30T00:11:56;10.35;;;4.80;;
9942;SDS011;5010;45.080;7.634;2023-04-30T00:14:22;15.05;;;5.90;;
9942;SDS011;5010;45.080;7.634;2023-04-30T00:16:50;9.45;;;6.38;;
9942;SDS011;5010;45.080;7.634;2023-04-30T00:19:16;11.95;;;7.00;;
9942;SDS011;5010;45.080;7.634;2023-04-30T00:21:45;6.85;;;4.80;;
9942;SDS011;5010;45.080;7.634;2023-04-30T00:24:12;6.53;;;4.05;;
9942;SDS011;5010;45.080;7.634;2023-04-30T00:26:39;7.20;;;6.20;;
9942;SDS011;5010;45.080;7.634;2023-04-30T00:29:09;7.90;;;5.53;;
9942;SDS011;5010;45.080;7.634;2023-04-30T00:31:36;7.57;;;6.22;;
9942;SDS011;5010;45.080;7.634;2023-04-30T00:34:03;6.38;;;4.55;;
9942;SDS011;5010;45.080;7.634;2023-04-30T00:36:30;7.47;;;4.97;;
9942;SDS011;5010;45.080;7.634;2023-04-30T00:38:58;9.00;;;6.65;;
9942;SDS011;5010;45.080;7.634;2023-04-30T00:41:25;11.93;;;6.25;;
9942;SDS011;5010;45.080;7.634;2023-04-30T00:43:53;8.95;;;5.30;;
9942;SDS011;5010;45.080;7.634;2023-04-30T00:46:20;5.60;;;4.35;;
9942;SDS011;5010;45.080;7.634;2023-04-30T00:48:47;9.82;;;6.55;;
9942;SDS011;5010;45.080;7.634;2023-04-30T00:51:15;8.23;;;5.75;;
9942;SDS011;5010;45.080;7.634;2023-04-30T00:53:42;6.50;;;5.55;;
9942;SDS011;5010;45.080;7.634;2023-04-30T00:56:10;6.63;;;5.93;;
9942;SDS011;5010;45.080;7.634;2023-04-30T00:58:40;6.78;;;5.60;;
9942;SDS011;5010;45.080;7.634;2023-04-30T01:01:07;8.27;;;4.90;;
9942;SDS011;5010;45.080;7.634;2023-04-30T01:03:34;6.85;;;6.43;;
9942;SDS011;5010;45.080;7.634;2023-04-30T01:06:01;6.85;;;5.45;;
9942;SDS011;5010;45.080;7.634;2023-04-30T01:08:28;6.07;;;5.10;;
9942;SDS011;5010;45.080;7.634;2023-04-30T01:10:59;6.53;;;5.05;;
9942;SDS011;5010;45.080;7.634;2023-04-30T01:13:39;5.43;;;4.28;;
9942;SDS011;5010;45.080;7.634;2023-04-30T01:16:13;9.32;;;6.28;;
9942;SDS011;5010;45.080;7.634;2023-04-30T01:18:46;7.07;;;6.68;;
9942;SDS011;5010;45.080;7.634;2023-04-30T01:21:17;6.50;;;5.72;;
9942;SDS011;5010;45.080;7.634;2023-04-30T01:23:54;5.90;;;4.85;;
9942;SDS011;5010;45.080;7.634;2023-04-30T01:26:42;6.72;;;6.35;;
9942;SDS011;5010;45.080;7.634;2023-04-30T01:29:26;6.80;;;5.35;;
9942;SDS011;5010;45.080;7.634;2023-04-30T01:31:54;9.18;;;6.25;;
9942;SDS011;5010;45.080;7.634;2023-04-30T01:34:21;7.75;;;6.30;;
9942;SDS011;5010;45.080;7.634;2023-04-30T01:36:50;6.45;;;5.75;;
9942;SDS011;5010;45.080;7.634;2023-04-30T01:39:32;10.00;;;6.22;;
9942;SDS011;5010;45.080;7.634;2023-04-30T01:42:11;8.15;;;6.75;;
9942;SDS011;5010;45.080;7.634;2023-04-30T01:45:06;8.20;;;7.10;;
9942;SDS011;5010;45.080;7.634;2023-04-30T01:47:45;6.93;;;5.38;;
9942;SDS011;5010;45.080;7.634;2023-04-30T01:50:19;6.07;;;5.78;;
9942;SDS011;5010;45.080;7.634;2023-04-30T01:52:55;6.68;;;5.30;;
9942;SDS011;5010;45.080;7.634;2023-04-30T01:55:26;5.97;;;5.40;;
9942;SDS011;5010;45.080;7.634;2023-04-30T01:58:00;7.32;;;6.85;;
9942;SDS011;5010;45.080;7.634;2023-04-30T02:00:31;7.00;;;5.43;;
9942;SDS011;5010;45.080;7.634;2023-04-30T02:02:59;9.23;;;7.35;;
9942;SDS011;5010;45.080;7.634;2023-04-30T02:05:26;6.07;;;4.43;;
9942;SDS011;5010;45.080;7.634;2023-04-30T02:07:53;6.15;;;5.10;;
9942;SDS011;5010;45.080;7.634;2023-04-30T02:10:20;6.43;;;4.60;;
9942;SDS011;5010;45.080;7.634;2023-04-30T02:12:49;10.23;;;5.50;;
9942;SDS011;5010;45.080;7.634;2023-04-30T02:15:16;5.35;;;3.75;;
9942;SDS011;5010;45.080;7.634;2023-04-30T02:17:44;7.65;;;6.22;;
9942;SDS011;5010;45.080;7.634;2023-04-30T02:20:11;5.80;;;5.35;;
9942;SDS011;5010;45.080;7.634;2023-04-30T02:22:38;7.80;;;7.40;;
9942;SDS011;5010;45.080;7.634;2023-04-30T02:25:05;5.93;;;4.75;;
9942;SDS011;5010;45.080;7.634;2023-04-30T02:27:32;6.85;;;5.13;;
9942;SDS011;5010;45.080;7.634;2023-04-30T02:30:00;6.53;;;5.05;;
9942;SDS011;5010;45.080;7.634;2023-04-30T02:32:27;6.63;;;6.15;;
9942;SDS011;5010;45.080;7.634;2023-04-30T02:34:55;5.80;;;4.40;;
9942;SDS011;5010;45.080;7.634;2023-04-30T02:37:22;6.40;;;5.32;;
9942;SDS011;5010;45.080;7.634;2023-04-30T02:39:49;6.75;;;5.85;;
9942;SDS011;5010;45.080;7.634;2023-04-30T02:42:17;8.15;;;6.43;;
9942;SDS011;5010;45.080;7.634;2023-04-30T02:44:44;7.18;;;5.90;;
9942;SDS011;5010;45.080;7.634;2023-04-30T02:47:10;5.15;;;3.72;;
9942;SDS011;5010;45.080;7.634;2023-04-30T02:49:37;5.22;;;4.72;;
9942;SDS011;5010;45.080;7.634;2023-04-30T02:52:06;5.95;;;4.65;;
9942;SDS011;5010;45.080;7.634;2023-04-30T02:54:34;7.28;;;6.95;;
9942;SDS011;5010;45.080;7.634;2023-04-30T02:57:00;6.00;;;4.72;;
9942;SDS011;5010;45.080;7.634;2023-04-30T02:59:28;5.88;;;5.57;;
9942;SDS011;5010;45.080;7.634;2023-04-30T03:01:55;5.57;;;4.05;;
9942;SDS011;5010;45.080;7.634;2023-04-30T03:04:22;6.22;;;5.55;;
9942;SDS011;5010;45.080;7.634;2023-04-30T03:06:49;7.25;;;5.72;;
9942;SDS011;5010;45.080;7.634;2023-04-30T03:09:17;8.77;;;6.13;;
9942;SDS011;5010;45.080;7.634;2023-04-30T03:11:44;5.28;;;4.15;;
9942;SDS011;5010;45.080;7.634;2023-04-30T03:14:11;7.53;;;6.47;;
9942;SDS011;5010;45.080;7.634;2023-04-30T03:16:37;6.25;;;5.72;;
9942;SDS011;5010;45.080;7.634;2023-04-30T03:19:04;7.53;;;5.55;;
9942;SDS011;5010;45.080;7.634;2023-04-30T03:21:31;6.50;;;5.38;;
9942;SDS011;5010;45.080;7.634;2023-04-30T03:23:58;5.00;;;4.35;;
9942;SDS011;5010;45.080;7.634;2023-04-30T03:26:26;8.10;;;6.68;;
9942;SDS011;5010;45.080;7.634;2023-04-30T03:28:53;5.60;;;4.10;;
9942;SDS011;5010;45.080;7.634;2023-04-30T03:31:20;5.70;;;4.35;;
9942;SDS011;5010;45.080;7.634;2023-04-30T03:33:47;5.80;;;5.55;;
9942;SDS011;5010;45.080;7.634;2023-04-30T03:36:14;6.43;;;6.03;;
9942;SDS011;5010;45.080;7.634;2023-04-30T03:38:41;5.57;;;4.18;;
9942;SDS011;5010;45.080;7.634;2023-04-30T03:41:08;5.82;;;4.65;;
9942;SDS011;5010;45.080;7.634;2023-04-30T03:43:36;6.88;;;6.20;;
9942;SDS011;5010;45.080;7.634;2023-04-30T03:46:03;7.65;;;5.82;;
9942;SDS011;5010;45.080;7.634;2023-04-30T03:48:30;7.57;;;6.70;;
9942;SDS011;5010;45.080;7.634;2023-04-30T03:50:57;6.50;;;5.47;;
9942;SDS011;5010;45.080;7.634;2023-04-30T03:53:24;6.15;;;5.25;;
9942;SDS011;5010;45.080;7.634;2023-04-30T03:55:51;6.70;;;6.30;;
9942;SDS011;5010;45.080;7.634;2023-04-30T03:58:19;6.60;;;6.20;;
9942;SDS011;5010;45.080;7.634;2023-04-30T04:00:48;5.40;;;4.75;;
9942;SDS011;5010;45.080;7.634;2023-04-30T04:03:15;6.80;;;6.40;;
9942;SDS011;5010;45.080;7.634;2023-04-30T04:05:42;5.50;;;5.22;;
9942;SDS011;5010;45.080;7.634;2023-04-30T04:08:10;7.30;;;6.75;;
9942;SDS011;5010;45.080;7.634;2023-04-30T04:10:37;6.07;;;5.40;;
9942;SDS011;5010;45.080;7.634;2023-04-30T04:13:05;7.15;;;6.75;;
9942;SDS011;5010;45.080;7.634;2023-04-30T04:15:32;7.45;;;7.05;;
9942;SDS011;5010;45.080;7.634;2023-04-30T04:18:00;5.55;;;4.95;;
9942;SDS011;5010;45.080;7.634;2023-04-30T04:20:27;5.30;;;4.05;;
9942;SDS011;5010;45.080;7.634;2023-04-30T04:22:54;6.25;;;4.97;;
9942;SDS011;5010;45.080;7.634;2023-04-30T04:25:21;6.65;;;6.25;;
9942;SDS011;5010;45.080;7.634;2023-04-30T04:27:50;6.45;;;4.70;;
9942;SDS011;5010;45.080;7.634;2023-04-30T04:30:17;5.47;;;4.78;;
9942;SDS011;5010;45.080;7.634;2023-04-30T04:32:44;6.20;;;5.60;;
9942;SDS011;5010;45.080;7.634;2023-04-30T04:35:19;6.55;;;6.00;;
9942;SDS011;5010;45.080;7.634;2023-04-30T04:37:46;6.97;;;4.63;;
9942;SDS011;5010;45.080;7.634;2023-04-30T04:40:13;6.90;;;6.05;;
9942;SDS011;5010;45.080;7.634;2023-04-30T04:42:40;7.15;;;5.10;;
9942;SDS011;5010;45.080;7.634;2023-04-30T04:45:07;7.10;;;6.30;;
9942;SDS011;5010;45.080;7.634;2023-04-30T04:47:35;5.60;;;5.30;;
9942;SDS011;5010;45.080;7.634;2023-04-30T04:50:02;5.95;;;5.55;;
9942;SDS011;5010;45.080;7.634;2023-04-30T04:52:31;7.35;;;4.35;;
9942;SDS011;5010;45.080;7.634;2023-04-30T04:54:58;6.03;;;5.72;;
9942;SDS011;5010;45.080;7.634;2023-04-30T04:57:25;6.10;;;5.80;;
9942;SDS011;5010;45.080;7.634;2023-04-30T04:59:51;5.55;;;3.88;;
9942;SDS011;5010;45.080;7.634;2023-04-30T05:02:18;6.00;;;4.45;;
9942;SDS011;5010;45.080;7.634;2023-04-30T05:04:47;6.50;;;5.75;;
9942;SDS011;5010;45.080;7.634;2023-04-30T05:07:14;6.00;;;5.70;;
9942;SDS011;5010;45.080;7.634;2023-04-30T05:09:43;7.88;;;6.70;;
9942;SDS011;5010;45.080;7.634;2023-04-30T05:12:11;6.50;;;6.10;;
9942;SDS011;5010;45.080;7.634;2023-04-30T05:14:38;6.15;;;5.85;;
9942;SDS011;5010;45.080;7.634;2023-04-30T05:17:05;4.85;;;4.53;;
9942;SDS011;5010;45.080;7.634;2023-04-30T05:19:32;5.53;;;4.97;;
9942;SDS011;5010;45.080;7.634;2023-04-30T05:22:00;7.63;;;4.32;;
9942;SDS011;5010;45.080;7.634;2023-04-30T05:24:27;6.82;;;6.43;;
9942;SDS011;5010;45.080;7.634;2023-04-30T05:26:55;7.13;;;5.57;;
9942;SDS011;5010;45.080;7.634;2023-04-30T05:29:22;5.68;;;5.15;;
9942;SDS011;5010;45.080;7.634;2023-04-30T05:31:49;7.45;;;5.65;;
9942;SDS011;5010;45.080;7.634;2023-04-30T05:34:16;6.63;;;5.30;;
9942;SDS011;5010;45.080;7.634;2023-04-30T05:36:43;6.80;;;5.72;;
9942;SDS011;5010;45.080;7.634;2023-04-30T05:39:10;6.35;;;5.68;;
9942;SDS011;5010;45.080;7.634;2023-04-30T05:41:37;5.75;;;3.95;;
9942;SDS011;5010;45.080;7.634;2023-04-30T05:44:05;5.15;;;4.15;;
9942;SDS011;5010;45.080;7.634;2023-04-30T05:46:32;5.22;;;4.57;;
9942;SDS011;5010;45.080;7.634;2023-04-30T05:49:00;6.20;;;5.75;;
9942;SDS011;5010;45.080;7.634;2023-04-30T05:51:27;7.50;;;4.65;;
9942;SDS011;5010;45.080;7.634;2023-04-30T05:53:55;9.00;;;6.57;;
9942;SDS011;5010;45.080;7.634;2023-04-30T05:56:22;6.30;;;5.60;;
9942;SDS011;5010;45.080;7.634;2023-04-30T05:58:50;7.13;;;5.82;;
9942;SDS011;5010;45.080;7.634;2023-04-30T06:01:19;7.32;;;5.97;;
9942;SDS011;5010;45.080;7.634;2023-04-30T06:03:47;6.38;;;5.25;;
9942;SDS011;5010;45.080;7.634;2023-04-30T06:06:14;7.85;;;6.03;;
9942;SDS011;5010;45.080;7.634;2023-04-30T06:08:41;7.45;;;5.55;;
9942;SDS011;5010;45.080;7.634;2023-04-30T06:11:10;5.13;;;4.53;;
9942;SDS011;5010;45.080;7.634;2023-04-30T06:13:37;6.03;;;4.95;;
9942;SDS011;5010;45.080;7.634;2023-04-30T06:16:05;7.30;;;5.60;;
9942;SDS011;5010;45.080;7.634;2023-04-30T06:18:34;5.85;;;4.78;;
9942;SDS011;5010;45.080;7.634;2023-04-30T06:21:01;6.28;;;4.50;;
9942;SDS011;5010;45.080;7.634;2023-04-30T06:23:28;6.78;;;5.68;;
9942;SDS011;5010;45.080;7.634;2023-04-30T06:25:55;7.65;;;5.95;;
9942;SDS011;5010;45.080;7.634;2023-04-30T06:28:24;5.93;;;4.20;;
9942;SDS011;5010;45.080;7.634;2023-04-30T06:30:51;7.22;;;4.90;;
9942;SDS011;5010;45.080;7.634;2023-04-30T06:33:18;7.07;;;6.75;;
9942;SDS011;5010;45.080;7.634;2023-04-30T06:35:46;5.70;;;3.67;;
9942;SDS011;5010;45.080;7.634;2023-04-30T06:38:14;5.60;;;4.60;;
9942;SDS011;5010;45.080;7.634;2023-04-30T06:40:41;7.05;;;5.43;;
9942;SDS011;5010;45.080;7.634;2023-04-30T06:43:08;8.15;;;6.93;;
9942;SDS011;5010;45.080;7.634;2023-04-30T06:45:36;7.72;;;4.53;;
9942;SDS011;5010;45.080;7.634;2023-04-30T06:48:03;6.10;;;4.55;;
9942;SDS011;5010;45.080;7.634;2023-04-30T06:50:30;8.25;;;6.40;;
9942;SDS011;5010;45.080;7.634;2023-04-30T06:52:58;7.57;;;3.95;;
9942;SDS011;5010;45.080;7.634;2023-04-30T06:55:25;8.32;;;5.75;;
9942;SDS011;5010;45.080;7.634;2023-04-30T06:57:52;7.97;;;5.40;;
9942;SDS011;5010;45.080;7.634;2023-04-30T07:00:20;7.60;;;4.55;;
9942;SDS011;5010;45.080;7.634;2023-04-30T07:02:47;8.75;;;5.60;;
9942;SDS011;5010;45.080;7.634;2023-04-30T07:05:16;9.98;;;5.80;;
9942;SDS011;5010;45.080;7.634;2023-04-30T07:07:43;12.02;;;5.63;;
9942;SDS011;5010;45.080;7.634;2023-04-30T07:10:11;5.75;;;4.45;;
9942;SDS011;5010;45.080;7.634;2023-04-30T07:12:38;9.80;;;7.00;;
9942;SDS011;5010;45.080;7.634;2023-04-30T07:15:05;7.22;;;5.35;;
9942;SDS011;5010;45.080;7.634;2023-04-30T07:17:33;8.77;;;5.00;;
9942;SDS011;5010;45.080;7.634;2023-04-30T07:20:01;9.93;;;4.85;;
9942;SDS011;5010;45.080;7.634;2023-04-30T07:22:28;11.80;;;6.00;;
9942;SDS011;5010;45.080;7.634;2023-04-30T07:24:55;9.05;;;6.35;;
9942;SDS011;5010;45.080;7.634;2023-04-30T07:27:23;6.80;;;3.80;;
9942;SDS011;5010;45.080;7.634;2023-04-30T07:29:50;9.88;;;6.13;;
9942;SDS011;5010;45.080;7.634;2023-04-30T07:32:17;8.02;;;5.00;;
9942;SDS011;5010;45.080;7.634;2023-04-30T07:34:44;6.22;;;4.68;;
9942;SDS011;5010;45.080;7.634;2023-04-30T07:37:11;11.95;;;6.55;;
9942;SDS011;5010;45.080;7.634;2023-04-30T07:39:38;8.60;;;4.55;;
9942;SDS011;5010;45.080;7.634;2023-04-30T07:42:05;9.30;;;6.50;;
9942;SDS011;5010;45.080;7.634;2023-04-30T07:44:34;8.85;;;6.35;;
9942;SDS011;5010;45.080;7.634;2023-04-30T07:47:00;9.90;;;6.43;;
9942;SDS011;5010;45.080;7.634;2023-04-30T07:49:28;7.53;;;5.30;;
9942;SDS011;5010;45.080;7.634;2023-04-30T07:51:55;8.82;;;5.72;;
9942;SDS011;5010;45.080;7.634;2023-04-30T07:54:22;9.18;;;5.68;;
9942;SDS011;5010;45.080;7.634;2023-04-30T07:56:49;8.88;;;7.00;;
9942;SDS011;5010;45.080;7.634;2023-04-30T07:59:16;7.05;;;5.75;;
9942;SDS011;5010;45.080;7.634;2023-04-30T08:01:44;6.88;;;5.80;;
9942;SDS011;5010;45.080;7.634;2023-04-30T08:04:11;7.68;;;4.78;;
9942;SDS011;5010;45.080;7.634;2023-04-30T08:06:38;9.38;;;7.63;;
9942;SDS011;5010;45.080;7.634;2023-04-30T08:09:05;10.98;;;10.40;;
9942;SDS011;5010;45.080;7.634;2023-04-30T08:11:32;9.95;;;8.60;;
9942;SDS011;5010;45.080;7.634;2023-04-30T08:13:59;10.70;;;9.38;;
9942;SDS011;5010;45.080;7.634;2023-04-30T08:16:27;14.05;;;12.77;;
9942;SDS011;5010;45.080;7.634;2023-04-30T08:18:55;12.57;;;9.30;;
9942;SDS011;5010;45.080;7.634;2023-04-30T08:21:23;13.40;;;10.02;;
9942;SDS011;5010;45.080;7.634;2023-04-30T08:23:52;10.88;;;10.27;;
9942;SDS011;5010;45.080;7.634;2023-04-30T08:26:19;13.75;;;12.00;;
9942;SDS011;5010;45.080;7.634;2023-04-30T08:28:46;14.35;;;12.50;;
9942;SDS011;5010;45.080;7.634;2023-04-30T08:31:13;14.13;;;10.57;;
9942;SDS011;5010;45.080;7.634;2023-04-30T08:33:40;12.70;;;7.70;;
9942;SDS011;5010;45.080;7.634;2023-04-30T08:36:08;12.60;;;10.63;;
9942;SDS011;5010;45.080;7.634;2023-04-30T08:38:35;9.57;;;7.97;;
9942;SDS011;5010;45.080;7.634;2023-04-30T08:41:04;12.43;;;9.90;;
9942;SDS011;5010;45.080;7.634;2023-04-30T08:43:37;12.20;;;9.55;;
9942;SDS011;5010;45.080;7.634;2023-04-30T08:46:04;13.05;;;9.75;;
9942;SDS011;5010;45.080;7.634;2023-04-30T08:48:32;8.90;;;8.43;;
9942;SDS011;5010;45.080;7.634;2023-04-30T08:50:59;9.75;;;7.95;;
9942;SDS011;5010;45.080;7.634;2023-04-30T08:53:28;7.45;;;6.32;;
9942;SDS011;5010;45.080;7.634;2023-04-30T08:55:55;10.98;;;8.35;;
9942;SDS011;5010;45.080;7.634;2023-04-30T08:58:23;8.88;;;8.40;;
9942;SDS011;5010;45.080;7.634;2023-04-30T09:00:50;7.70;;;5.32;;
9942;SDS011;5010;45.080;7.634;2023-04-30T09:03:17;8.82;;;6.97;;
9942;SDS011;5010;45.080;7.634;2023-04-30T09:05:46;8.60;;;5.32;;
9942;SDS011;5010;45.080;7.634;2023-04-30T09:08:15;7.53;;;6.88;;
9942;SDS011;5010;45.080;7.634;2023-04-30T09:10:45;8.70;;;6.75;;
9942;SDS011;5010;45.080;7.634;2023-04-30T09:13:12;9.18;;;8.35;;
9942;SDS011;5010;45.080;7.634;2023-04-30T09:15:39;9.43;;;8.10;;
9942;SDS011;5010;45.080;7.634;2023-04-30T09:18:07;12.57;;;8.43;;
9942;SDS011;5010;45.080;7.634;2023-04-30T09:20:35;7.15;;;6.20;;
9942;SDS011;5010;45.080;7.634;2023-04-30T09:23:06;8.50;;;7.25;;
9942;SDS011;5010;45.080;7.634;2023-04-30T09:25:37;9.23;;;5.82;;
9942;SDS011;5010;45.080;7.634;2023-04-30T09:28:10;11.85;;;7.53;;
9942;SDS011;5010;45.080;7.634;2023-04-30T09:30:39;9.27;;;7.10;;
9942;SDS011;5010;45.080;7.634;2023-04-30T09:33:06;9.55;;;7.70;;
9942;SDS011;5010;45.080;7.634;2023-04-30T09:35:34;12.52;;;6.90;;
9942;SDS011;5010;45.080;7.634;2023-04-30T09:38:03;24.58;;;12.82;;
9942;SDS011;5010;45.080;7.634;2023-04-30T09:40:33;23.13;;;14.38;;
9942;SDS011;5010;45.080;7.634;2023-04-30T09:43:01;27.02;;;12.50;;
9942;SDS011;5010;45.080;7.634;2023-04-30T09:45:41;15.85;;;10.70;;
9942;SDS011;5010;45.080;7.634;2023-04-30T09:48:08;15.70;;;12.77;;
9942;SDS011;5010;45.080;7.634;2023-04-30T09:50:36;19.98;;;13.60;;
9942;SDS011;5010;45.080;7.634;2023-04-30T09:53:05;12.02;;;9.73;;
9942;SDS011;5010;45.080;7.634;2023-04-30T09:55:32;9.93;;;8.15;;
9942;SDS011;5010;45.080;7.634;2023-04-30T09:58:02;16.23;;;8.55;;
9942;SDS011;5010;45.080;7.634;2023-04-30T10:00:32;14.23;;;8.82;;
9942;SDS011;5010;45.080;7.634;2023-04-30T10:03:03;8.13;;;6.97;;
9942;SDS011;5010;45.080;7.634;2023-04-30T10:05:33;9.68;;;7.40;;
9942;SDS011;5010;45.080;7.634;2023-04-30T10:08:04;12.77;;;8.88;;
9942;SDS011;5010;45.080;7.634;2023-04-30T10:10:33;15.02;;;9.57;;
9942;SDS011;5010;45.080;7.634;2023-04-30T10:13:03;8.95;;;7.53;;
9942;SDS011;5010;45.080;7.634;2023-04-30T10:15:32;9.82;;;8.10;;
9942;SDS011;5010;45.080;7.634;2023-04-30T10:18:05;9.15;;;6.38;;
9942;SDS011;5010;45.080;7.634;2023-04-30T10:20:40;10.95;;;7.10;;
9942;SDS011;5010;45.080;7.634;2023-04-30T10:23:07;13.07;;;7.30;;
9942;SDS011;5010;45.080;7.634;2023-04-30T10:25:36;11.50;;;6.70;;
9942;SDS011;5010;45.080;7.634;2023-04-30T10:28:05;8.70;;;5.00;;
9942;SDS011;5010;45.080;7.634;2023-04-30T10:30:33;12.38;;;6.75;;
9942;SDS011;5010;45.080;7.634;2023-04-30T10:33:03;6.60;;;5.47;;
9942;SDS011;5010;45.080;7.634;2023-04-30T10:35:39;8.32;;;6.15;;
9942;SDS011;5010;45.080;7.634;2023-04-30T10:38:14;9.25;;;7.03;;
9942;SDS011;5010;45.080;7.634;2023-04-30T10:40:46;7.90;;;5.65;;
9942;SDS011;5010;45.080;7.634;2023-04-30T10:43:15;11.25;;;9.15;;
9942;SDS011;5010;45.080;7.634;2023-04-30T10:45:43;11.52;;;6.85;;
9942;SDS011;5010;45.080;7.634;2023-04-30T10:48:13;12.43;;;7.45;;
9942;SDS011;5010;45.080;7.634;2023-04-30T10:50:49;11.32;;;6.22;;
9942;SDS011;5010;45.080;7.634;2023-04-30T10:53:17;7.80;;;7.40;;
9942;SDS011;5010;45.080;7.634;2023-04-30T10:55:47;8.95;;;7.07;;
9942;SDS011;5010;45.080;7.634;2023-04-30T10:58:25;10.57;;;6.45;;
9942;SDS011;5010;45.080;7.634;2023-04-30T11:01:01;7.00;;;5.75;;
9942;SDS011;5010;45.080;7.634;2023-04-30T11:03:31;8.68;;;7.28;;
9942;SDS011;5010;45.080;7.634;2023-04-30T11:05:59;8.38;;;6.75;;
9942;SDS011;5010;45.080;7.634;2023-04-30T11:08:33;10.77;;;10.18;;
9942;SDS011;5010;45.080;7.634;2023-04-30T11:11:00;8.30;;;7.90;;
9942;SDS011;5010;45.080;7.634;2023-04-30T11:13:34;11.32;;;8.18;;
9942;SDS011;5010;45.080;7.634;2023-04-30T11:16:05;7.95;;;6.65;;
9942;SDS011;5010;45.080;7.634;2023-04-30T11:18:33;10.45;;;6.60;;
9942;SDS011;5010;45.080;7.634;2023-04-30T11:21:06;9.50;;;7.10;;
9942;SDS011;5010;45.080;7.634;2023-04-30T11:23:34;9.32;;;6.45;;
9942;SDS011;5010;45.080;7.634;2023-04-30T11:26:01;8.40;;;7.38;;
9942;SDS011;5010;45.080;7.634;2023-04-30T11:28:30;9.20;;;5.85;;
9942;SDS011;5010;45.080;7.634;2023-04-30T11:30:59;7.47;;;7.07;;
9942;SDS011;5010;45.080;7.634;2023-04-30T11:33:28;7.60;;;5.60;;
9942;SDS011;5010;45.080;7.634;2023-04-30T11:35:58;8.57;;;6.65;;
9942;SDS011;5010;45.080;7.634;2023-04-30T11:38:26;8.27;;;7.43;;
9942;SDS011;5010;45.080;7.634;2023-04-30T11:40:55;9.65;;;7.03;;
9942;SDS011;5010;45.080;7.634;2023-04-30T11:43:23;9.55;;;8.23;;
9942;SDS011;5010;45.080;7.634;2023-04-30T11:48:30;9.25;;;8.75;;
9942;SDS011;5010;45.080;7.634;2023-04-30T11:50:59;9.13;;;6.75;;
9942;SDS011;5010;45.080;7.634;2023-04-30T11:53:28;8.82;;;6.45;;
9942;SDS011;5010;45.080;7.634;2023-04-30T11:55:55;8.00;;;7.60;;
9942;SDS011;5010;45.080;7.634;2023-04-30T11:58:22;8.07;;;7.30;;
9942;SDS011;5010;45.080;7.634;2023-04-30T12:00:49;6.55;;;6.18;;
9942;SDS011;5010;45.080;7.634;2023-04-30T12:03:17;12.20;;;8.00;;
9942;SDS011;5010;45.080;7.634;2023-04-30T12:05:44;8.88;;;8.35;;
9942;SDS011;5010;45.080;7.634;2023-04-30T12:08:13;8.82;;;7.57;;
9942;SDS011;5010;45.080;7.634;2023-04-30T12:10:40;8.73;;;8.02;;
9942;SDS011;5010;45.080;7.634;2023-04-30T12:13:07;7.32;;;5.35;;
9942;SDS011;5010;45.080;7.634;2023-04-30T12:15:38;6.90;;;5.97;;
9942;SDS011;5010;45.080;7.634;2023-04-30T12:18:09;10.93;;;8.75;;
9942;SDS011;5010;45.080;7.634;2023-04-30T12:20:37;7.63;;;5.80;;
9942;SDS011;5010;45.080;7.634;2023-04-30T12:23:06;9.13;;;6.97;;
9942;SDS011;5010;45.080;7.634;2023-04-30T12:25:40;6.97;;;5.80;;
9942;SDS011;5010;45.080;7.634;2023-04-30T12:28:08;10.60;;;8.50;;
9942;SDS011;5010;45.080;7.634;2023-04-30T12:30:35;6.95;;;6.55;;
9942;SDS011;5010;45.080;7.634;2023-04-30T12:33:03;8.02;;;7.65;;
9942;SDS011;5010;45.080;7.634;2023-04-30T12:35:30;7.40;;;6.25;;
9942;SDS011;5010;45.080;7.634;2023-04-30T12:38:00;9.85;;;7.43;;
9942;SDS011;5010;45.080;7.634;2023-04-30T12:40:28;8.00;;;7.60;;
9942;SDS011;5010;45.080;7.634;2023-04-30T12:43:00;8.05;;;7.65;;
9942;SDS011;5010;45.080;7.634;2023-04-30T12:45:43;8.55;;;8.02;;
9942;SDS011;5010;45.080;7.634;2023-04-30T12:48:12;7.90;;;6.55;;
9942;SDS011;5010;45.080;7.634;2023-04-30T12:50:39;11.55;;;8.18;;
9942;SDS011;5010;45.080;7.634;2023-04-30T12:53:07;11.38;;;10.80;;
9942;SDS011;5010;45.080;7.634;2023-04-30T12:55:34;8.57;;;6.30;;
9942;SDS011;5010;45.080;7.634;2023-04-30T12:58:08;8.20;;;7.80;;
9942;SDS011;5010;45.080;7.634;2023-04-30T13:00:42;9.82;;;8.07;;
9942;SDS011;5010;45.080;7.634;2023-04-30T13:03:13;9.63;;;8.52;;
9942;SDS011;5010;45.080;7.634;2023-04-30T13:05:44;9.45;;;8.95;;
9942;SDS011;5010;45.080;7.634;2023-04-30T13:08:13;9.20;;;8.70;;
9942;SDS011;5010;45.080;7.634;2023-04-30T13:10:40;8.32;;;7.88;;
9942;SDS011;5010;45.080;7.634;2023-04-30T13:13:09;9.27;;;8.80;;
9942;SDS011;5010;45.080;7.634;2023-04-30T13:15:36;8.77;;;8.27;;
9942;SDS011;5010;45.080;7.634;2023-04-30T13:18:03;7.78;;;6.80;;
9942;SDS011;5010;45.080;7.634;2023-04-30T13:20:32;10.23;;;7.10;;
9942;SDS011;5010;45.080;7.634;2023-04-30T13:22:59;8.30;;;7.18;;
9942;SDS011;5010;45.080;7.634;2023-04-30T13:25:26;8.40;;;7.20;;
9942;SDS011;5010;45.080;7.634;2023-04-30T13:27:53;6.57;;;5.45;;
9942;SDS011;5010;45.080;7.634;2023-04-30T13:30:21;11.15;;;6.95;;
9942;SDS011;5010;45.080;7.634;2023-04-30T13:32:49;6.75;;;6.13;;
9942;SDS011;5010;45.080;7.634;2023-04-30T13:35:16;7.10;;;6.15;;
9942;SDS011;5010;45.080;7.634;2023-04-30T13:37:43;8.10;;;7.18;;
9942;SDS011;5010;45.080;7.634;2023-04-30T13:40:12;8.35;;;7.10;;
9942;SDS011;5010;45.080;7.634;2023-04-30T13:42:40;9.07;;;6.13;;
9942;SDS011;5010;45.080;7.634;2023-04-30T13:45:08;12.68;;;7.82;;
9942;SDS011;5010;45.080;7.634;2023-04-30T13:47:37;7.85;;;7.20;;
9942;SDS011;5010;45.080;7.634;2023-04-30T13:50:04;7.68;;;6.32;;
9942;SDS011;5010;45.080;7.634;2023-04-30T13:52:32;7.22;;;6.82;;
9942;SDS011;5010;45.080;7.634;2023-04-30T13:54:59;9.02;;;7.88;;
9942;SDS011;5010;45.080;7.634;2023-04-30T13:57:26;7.25;;;6.85;;
9942;SDS011;5010;45.080;7.634;2023-04-30T13:59:54;7.95;;;6.50;;
9942;SDS011;5010;45.080;7.634;2023-04-30T14:02:21;8.20;;;6.95;;
9942;SDS011;5010;45.080;7.634;2023-04-30T14:04:49;6.95;;;6.10;;
9942;SDS011;5010;45.080;7.634;2023-04-30T14:07:16;8.15;;;7.72;;
9942;SDS011;5010;45.080;7.634;2023-04-30T14:09:43;7.63;;;7.22;;
9942;SDS011;5010;45.080;7.634;2023-04-30T14:12:10;7.40;;;6.35;;
9942;SDS011;5010;45.080;7.634;2023-04-30T14:14:37;7.65;;;5.22;;
9942;SDS011;5010;45.080;7.634;2023-04-30T14:17:04;8.10;;;6.03;;
9942;SDS011;5010;45.080;7.634;2023-04-30T14:19:31;7.35;;;6.32;;
9942;SDS011;5010;45.080;7.634;2023-04-30T14:22:00;6.68;;;5.10;;
9942;SDS011;5010;45.080;7.634;2023-04-30T14:24:27;7.10;;;6.70;;
9942;SDS011;5010;45.080;7.634;2023-04-30T14:26:55;6.00;;;5.60;;
9942;SDS011;5010;45.080;7.634;2023-04-30T14:29:23;9.93;;;7.70;;
9942;SDS011;5010;45.080;7.634;2023-04-30T14:31:50;8.40;;;6.80;;
9942;SDS011;5010;45.080;7.634;2023-04-30T14:34:17;6.65;;;5.57;;
9942;SDS011;5010;45.080;7.634;2023-04-30T14:36:44;8.85;;;7.85;;
9942;SDS011;5010;45.080;7.634;2023-04-30T14:39:13;6.70;;;5.30;;
9942;SDS011;5010;45.080;7.634;2023-04-30T14:41:40;5.78;;;5.43;;
9942;SDS011;5010;45.080;7.634;2023-04-30T14:44:07;7.88;;;7.47;;
9942;SDS011;5010;45.080;7.634;2023-04-30T14:46:34;5.40;;;4.72;;
9942;SDS011;5010;45.080;7.634;2023-04-30T14:49:01;7.13;;;5.85;;
9942;SDS011;5010;45.080;7.634;2023-04-30T14:51:28;6.93;;;4.82;;
9942;SDS011;5010;45.080;7.634;2023-04-30T14:53:56;9.82;;;6.50;;
9942;SDS011;5010;45.080;7.634;2023-04-30T14:56:24;7.40;;;5.40;;
9942;SDS011;5010;45.080;7.634;2023-04-30T14:58:51;7.25;;;6.25;;
9942;SDS011;5010;45.080;7.634;2023-04-30T15:01:18;6.07;;;5.65;;
9942;SDS011;5010;45.080;7.634;2023-04-30T15:03:45;7.35;;;6.65;;
9942;SDS011;5010;45.080;7.634;2023-04-30T15:06:12;7.40;;;7.00;;
9942;SDS011;5010;45.080;7.634;2023-04-30T15:08:40;6.95;;;6.55;;
9942;SDS011;5010;45.080;7.634;2023-04-30T15:11:07;5.80;;;5.50;;
9942;SDS011;5010;45.080;7.634;2023-04-30T15:13:36;6.93;;;6.53;;
9942;SDS011;5010;45.080;7.634;2023-04-30T15:16:03;6.85;;;5.65;;
9942;SDS011;5010;45.080;7.634;2023-04-30T15:18:31;6.90;;;5.28;;
9942;SDS011;5010;45.080;7.634;2023-04-30T15:20:58;6.80;;;6.40;;
9942;SDS011;5010;45.080;7.634;2023-04-30T15:23:26;7.47;;;5.70;;